This is the latest recevied weather packets stored in our database for station/object N9EA. If no packets are shown the sender has not sent any weather packets the latest 10 day(s).
| Time | Temp. | Humidity | Pressure | Rain* | Wind** | Luminosity | Snow |
|---|---|---|---|---|---|---|---|
| 1777832824 | 20° C | 44% | 1007.2 hPa | 0 mm | - | 712 W/m² | - |
| 1777832523 | 20° C | 43% | 1007.1 hPa | 0 mm | - | 739 W/m² | - |
| 1777832218 | 20.56° C | 43% | 1007.2 hPa | 0 mm | - | 730 W/m² | - |
| 1777831915 | 20° C | 43% | 1007.3 hPa | 0 mm | - | 737 W/m² | - |
| 1777831612 | 18.89° C | 46% | 1007.7 hPa | 0 mm | - | 738 W/m² | - |
| 1777831311 | 19.44° C | 44% | 1007.6 hPa | 0 mm | - | 740 W/m² | - |
| 1777831007 | 18.89° C | 44% | 1007.8 hPa | 0 mm | - | 740 W/m² | - |
| 1777830705 | 19.44° C | 44% | 1007.8 hPa | 0 mm | - | 741 W/m² | - |
| 1777830400 | 18.89° C | 45% | 1007.9 hPa | 0 mm | - | 740 W/m² | - |
| 1777830097 | 18.33° C | 44% | 1008.1 hPa | 0 mm | - | 736 W/m² | - |
| 1777829793 | 18.33° C | 45% | 1008.2 hPa | 0 mm | - | 734 W/m² | - |
| 1777829489 | 18.33° C | 45% | 1008.5 hPa | 0 mm | - | 731 W/m² | - |
| 1777829186 | 18.33° C | 44% | 1008.2 hPa | 0 mm | - | 731 W/m² | - |
| 1777828884 | 18.33° C | 45% | 1008.3 hPa | 0 mm | - | 727 W/m² | - |
| 1777828580 | 18.33° C | 44% | 1008.4 hPa | 0 mm | - | 723 W/m² | - |
| 1777828277 | 17.78° C | 45% | 1008.5 hPa | 0 mm | - | 726 W/m² | - |
| 1777827974 | 17.78° C | 45% | 1008.4 hPa | 0 mm | - | 721 W/m² | - |
| 1777827670 | 17.78° C | 45% | 1008.4 hPa | 0 mm | - | 713 W/m² | - |
| 1777827368 | 17.22° C | 47% | 1008.7 hPa | 0 mm | - | 699 W/m² | - |
| 1777827064 | 16.67° C | 48% | 1008.9 hPa | 0 mm | - | 679 W/m² | - |
| 1777826761 | 16.11° C | 50% | 1008.9 hPa | 0 mm | - | 678 W/m² | - |
| 1777826458 | 16.67° C | 50% | 1008.9 hPa | 0 mm | - | 608 W/m² | - |
| 1777826155 | 16.11° C | 51% | 1009.1 hPa | 0 mm | - | 691 W/m² | - |
| 1777825852 | 16.67° C | 50% | 1009.2 hPa | 0 mm | - | 497 W/m² | - |
| 1777825549 | 15.56° C | 51% | 1009.2 hPa | 0 mm | - | 696 W/m² | - |
* Rain latest hour (hover to see other rain measurements)
** Current wind speed in m/s (hover to see current wind gust speed)